Time;durP1;ratioP1;P1;durP2;ratioP2;P2;SDS_P1;SDS_P2;PMS_P1;PMS_P2;Temp;Humidity;BMP_temperature;BMP_pressure;BME280_temperature;BME280_humidity;BME280_pressure;Samples;Min_cycle;Max_cycle;Signal;HPM_P1;HPM_P2
2022/12/13 00:00:19;;;;;;;;;;;-2.20;99.90;;;;;;6219592;23;19982;-66
2022/12/13 00:02:45;;;;;;;;;;;-2.20;99.90;;;;;;6247167;23;19926;-67
2022/12/13 00:05:11;;;;;;;;;;;-2.20;99.90;;;;;;6246410;23;19911;-67
2022/12/13 00:07:36;;;;;;;;;;;-2.20;99.90;;;;;;6246389;23;19900;-67
2022/12/13 00:10:02;;;;;;;;;;;-2.20;99.90;;;;;;6246452;23;19900;-67
2022/12/13 00:12:28;;;;;;;;;;;-2.20;99.90;;;;;;6246374;23;19931;-67
2022/12/13 00:14:53;;;;;;;;;;;-2.10;99.90;;;;;;6246677;23;19900;-67
2022/12/13 00:17:19;;;;;;;;;;;-2.00;99.90;;;;;;6246282;23;19899;-66
2022/12/13 00:19:45;;;;;;;;;;;-2.10;99.90;;;;;;6246721;23;19934;-67
2022/12/13 00:22:11;;;;;;;;;;;-2.20;99.90;;;;;;6246350;23;19903;-67
2022/12/13 00:24:36;;;;;;;;;;;-2.20;99.90;;;;;;6246441;22;20215;-67
2022/12/13 00:27:02;;;;;;;;;;;-2.20;99.90;;;;;;6246313;23;19907;-67
2022/12/13 00:29:28;;;;;;;;;;;-2.30;99.90;;;;;;6246437;23;19912;-67
2022/12/13 00:31:53;;;;;;;;;;;-2.30;99.90;;;;;;6246663;23;19931;-67
2022/12/13 00:34:19;;;;;;;;;;;-2.20;99.90;;;;;;6246214;23;19914;-67
2022/12/13 00:36:45;;;;;;;;;;;-2.20;99.90;;;;;;6246209;23;19900;-67
2022/12/13 00:39:12;;;;;;;;;;;-2.20;99.90;;;;;;6246583;23;20318;-66
2022/12/13 00:41:38;;;;;;;;;;;-2.10;99.90;;;;;;6248065;23;19900;-67
2022/12/13 00:44:04;;;;;;;;;;;-2.10;99.90;;;;;;6248034;23;19907;-67
2022/12/13 00:46:30;;;;;;;;;;;-2.00;99.90;;;;;;6248329;23;19906;-67
2022/12/13 00:48:56;;;;;;;;;;;-2.00;99.90;;;;;;6247952;23;19906;-67
2022/12/13 00:51:22;;;;;;;;;;;-2.00;99.90;;;;;;6248314;23;19899;-68
2022/12/13 00:53:48;;;;;;;;;;;-2.10;99.90;;;;;;6248247;23;19899;-67
2022/12/13 00:56:15;;;;;;;;;;;-2.10;99.90;;;;;;6248601;23;20368;-67
2022/12/13 00:58:41;;;;;;;;;;;-2.10;99.90;;;;;;6248090;23;19942;-67
2022/12/13 01:01:07;;;;;;;;;;;-2.00;99.90;;;;;;6247858;23;20238;-68
2022/12/13 01:03:32;;;;;;;;;;;-2.00;99.90;;;;;;6248508;23;19899;-67
2022/12/13 01:05:58;;;;;;;;;;;-1.90;99.90;;;;;;6247815;23;19899;-68
2022/12/13 01:08:24;;;;;;;;;;;-1.90;99.90;;;;;;6248122;23;19900;-67
2022/12/13 01:10:50;;;;;;;;;;;-1.90;99.90;;;;;;6248130;23;19899;-66
2022/12/13 01:13:15;;;;;;;;;;;-1.90;99.90;;;;;;6247818;23;19904;-67
2022/12/13 01:15:41;;;;;;;;;;;-1.90;99.90;;;;;;6248191;23;19910;-67
2022/12/13 01:18:07;;;;;;;;;;;-2.00;99.90;;;;;;6247738;23;19934;-66
2022/12/13 01:20:33;;;;;;;;;;;-2.00;99.90;;;;;;6248117;23;19907;-67
2022/12/13 01:22:58;;;;;;;;;;;-2.00;99.90;;;;;;6247729;23;20233;-67
2022/12/13 01:25:24;;;;;;;;;;;-2.00;99.90;;;;;;6247685;22;19899;-66
2022/12/13 01:27:50;;;;;;;;;;;-1.90;99.90;;;;;;6247653;23;19950;-66
2022/12/13 01:30:15;;;;;;;;;;;-1.90;99.90;;;;;;6247460;23;19919;-68
2022/12/13 01:32:41;;;;;;;;;;;-1.90;99.90;;;;;;6247953;23;19933;-67
2022/12/13 01:35:06;;;;;;;;;;;-1.90;99.90;;;;;;6247929;23;19900;-67
2022/12/13 01:37:32;;;;;;;;;;;-1.80;99.90;;;;;;6248199;23;19911;-67
2022/12/13 01:39:57;;;;;;;;;;;-1.80;99.90;;;;;;6247890;23;19900;-66
2022/12/13 01:42:23;;;;;;;;;;;-1.70;99.90;;;;;;6247541;23;19907;-67
2022/12/13 01:44:54;;;;;;;;;;;-1.70;99.90;;;;;;6247511;23;19899;-66
2022/12/13 01:47:26;;;;;;;;;;;-1.80;99.90;;;;;;6248143;23;19900;-67
2022/12/13 01:49:53;;;;;;;;;;;-1.80;99.90;;;;;;6247390;23;19994;-67
2022/12/13 01:52:19;;;;;;;;;;;-1.80;99.90;;;;;;6247563;23;19900;-68
2022/12/13 01:54:47;;;;;;;;;;;-1.80;99.90;;;;;;6247404;23;19904;-67
2022/12/13 01:57:14;;;;;;;;;;;-1.80;99.90;;;;;;6247676;23;19900;-67
2022/12/13 01:59:40;;;;;;;;;;;-1.90;99.90;;;;;;6247341;23;19903;-67
2022/12/13 02:02:06;;;;;;;;;;;-1.90;99.90;;;;;;6247354;23;19978;-67
2022/12/13 02:04:47;;;;;;;;;;;-1.90;99.90;;;;;;6247922;23;20337;-66
2022/12/13 02:07:14;;;;;;;;;;;-1.90;99.90;;;;;;6247251;23;19899;-67
2022/12/13 02:09:40;;;;;;;;;;;-2.00;99.90;;;;;;6247173;23;19965;-67
2022/12/13 02:12:06;;;;;;;;;;;-2.00;99.90;;;;;;6247213;23;20315;-67
2022/12/13 02:14:33;;;;;;;;;;;-2.10;99.90;;;;;;6247479;23;20267;-67
2022/12/13 02:17:02;;;;;;;;;;;-2.00;99.90;;;;;;6247112;23;19907;-67
2022/12/13 02:19:31;;;;;;;;;;;-2.10;99.90;;;;;;6247044;23;20277;-67
2022/12/13 02:22:05;;;;;;;;;;;-2.10;99.90;;;;;;6247411;23;19899;-66
2022/12/13 02:24:40;;;;;;;;;;;-2.00;99.90;;;;;;6247392;22;19903;-67
2022/12/13 02:27:10;;;;;;;;;;;-1.90;99.90;;;;;;6220136;23;19899;-67
2022/12/13 02:29:45;;;;;;;;;;;-1.90;99.90;;;;;;6247029;22;19911;-67
2022/12/13 02:32:30;;;;;;;;;;;-1.90;99.90;;;;;;6247280;23;19931;-67
2022/12/13 02:35:02;;;;;;;;;;;-1.80;99.90;;;;;;6246117;23;19899;-67
2022/12/13 02:38:03;;;;;;;;;;;-1.80;99.90;;;;;;6247167;23;19957;-67
2022/12/13 02:40:31;;;;;;;;;;;-1.80;99.90;;;;;;6095554;23;20025;-67
2022/12/13 02:43:00;;;;;;;;;;;-1.80;99.90;;;;;;6217770;23;19906;-68
2022/12/13 02:45:33;;;;;;;;;;;-1.80;99.90;;;;;;6247164;23;20320;-67
2022/12/13 02:48:00;;;;;;;;;;;-1.90;99.90;;;;;;6246832;23;19903;-67
2022/12/13 02:50:26;;;;;;;;;;;-1.90;99.90;;;;;;6247518;23;19900;-67
2022/12/13 02:52:53;;;;;;;;;;;-1.80;99.90;;;;;;6247090;23;19926;-67
2022/12/13 02:55:18;;;;;;;;;;;-1.80;99.90;;;;;;6246803;23;19899;-67
2022/12/13 02:57:44;;;;;;;;;;;-1.70;99.90;;;;;;6246990;23;19910;-67
2022/12/13 03:00:10;;;;;;;;;;;-1.80;99.90;;;;;;6246743;23;19899;-66
2022/12/13 03:02:54;;;;;;;;;;;-1.80;99.90;;;;;;6246695;23;19922;-66
2022/12/13 03:08:24;;;;;;;;;;;-1.80;99.90;;;;;;6246798;23;19907;-67
2022/12/13 03:10:54;;;;;;;;;;;-1.80;99.90;;;;;;6246667;23;19931;-67
2022/12/13 03:13:52;;;;;;;;;;;-1.80;99.90;;;;;;6246672;23;19899;-67
2022/12/13 03:16:23;;;;;;;;;;;-1.80;99.90;;;;;;6163948;23;19986;-67
2022/12/13 03:18:50;;;;;;;;;;;-1.90;99.90;;;;;;6246853;23;19904;-66
2022/12/13 03:21:16;;;;;;;;;;;-1.90;99.90;;;;;;6246531;23;19921;-68
2022/12/13 03:23:41;;;;;;;;;;;-1.90;99.90;;;;;;6246833;22;20369;-67
2022/12/13 03:26:09;;;;;;;;;;;-2.00;99.90;;;;;;6246536;23;19900;-67
2022/12/13 03:28:34;;;;;;;;;;;-2.00;99.90;;;;;;6246603;23;19911;-67
2022/12/13 03:31:00;;;;;;;;;;;-2.00;99.90;;;;;;6246901;23;20364;-67
2022/12/13 03:33:26;;;;;;;;;;;-2.00;99.90;;;;;;6246513;23;19982;-67
2022/12/13 03:35:51;;;;;;;;;;;-2.10;99.90;;;;;;6246483;23;19899;-67
2022/12/13 03:38:17;;;;;;;;;;;-2.00;99.90;;;;;;6246720;23;19903;-67
2022/12/13 03:40:43;;;;;;;;;;;-2.00;99.90;;;;;;6246484;23;20313;-67
2022/12/13 03:43:08;;;;;;;;;;;-2.00;99.90;;;;;;6246770;23;19911;-67
2022/12/13 03:45:34;;;;;;;;;;;-2.00;99.90;;;;;;6246419;23;19906;-67
2022/12/13 03:48:00;;;;;;;;;;;-2.00;99.90;;;;;;6246452;23;19978;-67
2022/12/13 03:50:25;;;;;;;;;;;-2.00;99.90;;;;;;6246758;23;20297;-67
2022/12/13 03:52:57;;;;;;;;;;;-2.10;99.90;;;;;;6246390;23;19903;-67
2022/12/13 03:55:22;;;;;;;;;;;-2.10;99.90;;;;;;6247048;23;19900;-67
2022/12/13 03:57:47;;;;;;;;;;;-2.10;99.90;;;;;;6246615;23;19910;-67
2022/12/13 04:00:13;;;;;;;;;;;-2.10;99.90;;;;;;6246414;23;19899;-68
2022/12/13 04:02:39;;;;;;;;;;;-2.10;99.90;;;;;;6246377;23;20341;-66
2022/12/13 04:05:04;;;;;;;;;;;-2.00;99.90;;;;;;6246361;23;19914;-67
2022/12/13 04:07:30;;;;;;;;;;;-2.10;99.90;;;;;;6246368;23;19903;-68
2022/12/13 04:09:55;;;;;;;;;;;-2.10;99.90;;;;;;6246380;23;19903;-67
2022/12/13 04:15:05;;;;;;;;;;;-2.10;99.90;;;;;;6247586;23;19906;-68
2022/12/13 04:17:31;;;;;;;;;;;-2.10;99.90;;;;;;6248123;23;19904;-67
2022/12/13 04:19:56;;;;;;;;;;;-2.00;99.90;;;;;;6248600;23;20230;-67
2022/12/13 04:22:22;;;;;;;;;;;-2.10;99.90;;;;;;6248240;23;19907;-67
2022/12/13 04:24:48;;;;;;;;;;;-2.00;99.90;;;;;;6248042;22;19900;-68
2022/12/13 04:27:14;;;;;;;;;;;-2.00;99.90;;;;;;6248850;23;20367;-67
2022/12/13 04:29:39;;;;;;;;;;;-1.90;99.90;;;;;;6248092;23;19911;-67
2022/12/13 04:32:05;;;;;;;;;;;-1.90;99.90;;;;;;6248467;23;19945;-67
2022/12/13 04:34:31;;;;;;;;;;;-2.00;99.90;;;;;;6221280;23;19950;-68
2022/12/13 04:36:56;;;;;;;;;;;-2.10;99.90;;;;;;6248467;23;19900;-67
2022/12/13 04:39:22;;;;;;;;;;;-2.10;99.90;;;;;;6248001;23;19907;-67
2022/12/13 04:41:47;;;;;;;;;;;-2.00;99.90;;;;;;6248381;23;19915;-67
2022/12/13 04:44:13;;;;;;;;;;;-2.00;99.90;;;;;;6248098;23;20215;-67
2022/12/13 04:46:38;;;;;;;;;;;-2.00;99.90;;;;;;6248386;23;19934;-67
2022/12/13 04:49:04;;;;;;;;;;;-1.90;99.90;;;;;;6248031;23;20294;-66
2022/12/13 04:51:30;;;;;;;;;;;-1.80;99.90;;;;;;6248341;23;19900;-68
2022/12/13 04:53:55;;;;;;;;;;;-1.80;99.90;;;;;;6247952;23;19900;-67
2022/12/13 04:56:21;;;;;;;;;;;-1.80;99.90;;;;;;6248020;23;19903;-68
2022/12/13 04:58:46;;;;;;;;;;;-1.80;99.90;;;;;;6248201;23;19919;-67
2022/12/13 05:01:12;;;;;;;;;;;-1.80;99.90;;;;;;6247884;23;19983;-67
2022/12/13 05:03:38;;;;;;;;;;;-1.90;99.90;;;;;;6248526;23;19978;-68
2022/12/13 05:06:07;;;;;;;;;;;-1.90;99.90;;;;;;6248197;23;19899;-67
2022/12/13 05:08:34;;;;;;;;;;;-2.20;99.90;;;;;;6247936;23;19900;-67
2022/12/13 05:11:00;;;;;;;;;;;-2.20;99.90;;;;;;6248491;23;19899;-67
2022/12/13 05:13:26;;;;;;;;;;;-2.10;99.90;;;;;;6248107;23;19900;-67
2022/12/13 05:15:58;;;;;;;;;;;-2.00;99.90;;;;;;6248063;23;19906;-67
2022/12/13 05:18:24;;;;;;;;;;;-2.20;99.90;;;;;;6247641;23;19910;-67
2022/12/13 05:20:50;;;;;;;;;;;-2.00;99.90;;;;;;6247716;23;19926;-67
2022/12/13 05:23:19;;;;;;;;;;;-2.00;99.90;;;;;;6247696;23;19899;-67
2022/12/13 05:25:44;;;;;;;;;;;-1.90;99.90;;;;;;6247524;22;19900;-67
2022/12/13 05:28:10;;;;;;;;;;;-1.90;99.90;;;;;;6247617;23;20055;-67
2022/12/13 05:30:39;;;;;;;;;;;-1.90;99.90;;;;;;6247468;23;19939;-67
2022/12/13 05:33:05;;;;;;;;;;;-2.00;99.90;;;;;;6247601;23;19900;-67
2022/12/13 05:35:30;;;;;;;;;;;-2.00;99.90;;;;;;6247880;23;19903;-67
2022/12/13 05:37:56;;;;;;;;;;;-2.20;99.90;;;;;;6247451;23;19942;-67
2022/12/13 05:40:22;;;;;;;;;;;-2.40;99.90;;;;;;6247874;23;19949;-67
2022/12/13 05:42:47;;;;;;;;;;;-2.40;99.90;;;;;;6247498;23;20203;-68
2022/12/13 05:45:14;;;;;;;;;;;-2.60;99.90;;;;;;6248169;23;19900;-67
2022/12/13 05:47:40;;;;;;;;;;;-2.70;99.90;;;;;;6247445;23;20302;-67
2022/12/13 05:50:06;;;;;;;;;;;-2.70;99.90;;;;;;6247743;23;19907;-66
2022/12/13 05:52:31;;;;;;;;;;;-2.80;99.90;;;;;;6247418;23;19907;-66
2022/12/13 05:54:57;;;;;;;;;;;-2.80;99.90;;;;;;6247715;23;19904;-67
2022/12/13 05:57:22;;;;;;;;;;;-2.80;99.90;;;;;;6220356;23;19961;-67
2022/12/13 05:59:48;;;;;;;;;;;-2.90;99.90;;;;;;6248066;23;19900;-66
2022/12/13 06:02:14;;;;;;;;;;;-2.90;99.90;;;;;;6220430;23;19900;-67
2022/12/13 06:04:39;;;;;;;;;;;-2.90;99.90;;;;;;6247963;23;20233;-67
2022/12/13 06:07:05;;;;;;;;;;;-2.80;99.90;;;;;;6247248;23;19900;-67
2022/12/13 06:09:31;;;;;;;;;;;-2.80;99.90;;;;;;6247239;23;19908;-67
2022/12/13 06:11:57;;;;;;;;;;;-2.90;99.90;;;;;;6247519;23;19950;-67
2022/12/13 06:14:22;;;;;;;;;;;-2.90;99.90;;;;;;6247179;23;19900;-67
2022/12/13 06:16:48;;;;;;;;;;;-2.90;99.90;;;;;;6247139;23;19906;-68
2022/12/13 06:19:14;;;;;;;;;;;-3.00;99.90;;;;;;6247710;23;20294;-68
2022/12/13 06:21:39;;;;;;;;;;;-3.00;99.90;;;;;;6247485;23;19900;-66
2022/12/13 06:24:06;;;;;;;;;;;-3.00;99.90;;;;;;6247732;22;20302;-67
2022/12/13 06:26:32;;;;;;;;;;;-3.00;99.90;;;;;;6247024;23;19899;-67
2022/12/13 06:28:58;;;;;;;;;;;-3.20;99.90;;;;;;6247098;23;19911;-67
2022/12/13 06:31:23;;;;;;;;;;;-3.20;99.90;;;;;;6247369;23;19906;-67
2022/12/13 06:33:49;;;;;;;;;;;-3.20;99.90;;;;;;6246975;23;19906;-67
2022/12/13 06:36:14;;;;;;;;;;;-3.10;99.90;;;;;;6246953;23;19899;-67
2022/12/13 06:38:40;;;;;;;;;;;-3.10;99.90;;;;;;6246924;23;19910;-67
2022/12/13 06:41:10;;;;;;;;;;;-3.00;99.90;;;;;;6246926;23;20376;-68
2022/12/13 06:43:35;;;;;;;;;;;-2.80;99.90;;;;;;6246857;23;19899;-67
2022/12/13 06:46:04;;;;;;;;;;;-2.70;99.90;;;;;;6246920;23;19904;-68
2022/12/13 06:48:30;;;;;;;;;;;-2.60;99.90;;;;;;6246798;23;19906;-66
2022/12/13 06:50:58;;;;;;;;;;;-2.50;99.90;;;;;;6247543;23;19970;-67
2022/12/13 06:53:24;;;;;;;;;;;-2.50;99.90;;;;;;6247182;23;19900;-67
2022/12/13 06:55:49;;;;;;;;;;;-2.50;99.90;;;;;;6247489;23;20022;-67
2022/12/13 06:58:15;;;;;;;;;;;-2.60;99.90;;;;;;6219835;23;19904;-67
2022/12/13 07:00:40;;;;;;;;;;;-2.50;99.90;;;;;;6246837;23;19907;-67
2022/12/13 07:03:06;;;;;;;;;;;-2.60;99.90;;;;;;6246807;23;19950;-67
2022/12/13 07:05:31;;;;;;;;;;;-2.50;99.90;;;;;;6246747;23;19950;-67
2022/12/13 07:07:57;;;;;;;;;;;-2.50;99.90;;;;;;6246859;23;20222;-67
2022/12/13 07:10:22;;;;;;;;;;;-2.50;99.90;;;;;;6246968;23;19900;-67
2022/12/13 07:12:48;;;;;;;;;;;-2.40;99.90;;;;;;6246730;23;19900;-67
2022/12/13 07:15:13;;;;;;;;;;;-2.50;99.90;;;;;;6246738;23;19900;-67
2022/12/13 07:17:41;;;;;;;;;;;-2.40;99.90;;;;;;6246518;23;19906;-67
2022/12/13 07:20:07;;;;;;;;;;;-2.50;99.90;;;;;;6246958;23;19903;-67
2022/12/13 07:22:32;;;;;;;;;;;-2.60;99.90;;;;;;6246641;23;19966;-67
2022/12/13 07:24:58;;;;;;;;;;;-2.70;99.90;;;;;;6246602;22;20318;-67
2022/12/13 07:27:23;;;;;;;;;;;-2.70;99.90;;;;;;6246600;23;19906;-67
2022/12/13 07:29:49;;;;;;;;;;;-2.70;99.90;;;;;;6246284;23;19990;-66
2022/12/13 07:32:14;;;;;;;;;;;-2.60;99.90;;;;;;6246874;23;19987;-66
2022/12/13 07:34:40;;;;;;;;;;;-2.60;99.90;;;;;;6246533;23;19954;-67
2022/12/13 07:37:07;;;;;;;;;;;-2.70;99.90;;;;;;6246771;23;19926;-67
2022/12/13 07:39:32;;;;;;;;;;;-2.70;99.90;;;;;;6246382;23;19910;-68
2022/12/13 07:41:58;;;;;;;;;;;-2.80;99.90;;;;;;6246440;23;19900;-67
2022/12/13 07:44:24;;;;;;;;;;;-2.80;99.90;;;;;;6246765;23;19906;-67
2022/12/13 07:46:49;;;;;;;;;;;-2.60;99.90;;;;;;6246468;23;20246;-68
2022/12/13 07:49:15;;;;;;;;;;;-2.60;99.90;;;;;;6247019;23;19906;-68
2022/12/13 07:51:40;;;;;;;;;;;-2.50;99.90;;;;;;6248434;23;19903;-67
2022/12/13 07:54:07;;;;;;;;;;;-2.40;99.90;;;;;;6246351;23;19903;-74
2022/12/13 07:56:33;;;;;;;;;;;-2.40;99.90;;;;;;6248503;23;19899;-72
2022/12/13 07:58:58;;;;;;;;;;;-2.40;99.90;;;;;;6249071;23;19992;-68
2022/12/13 08:01:24;;;;;;;;;;;-2.50;99.90;;;;;;6248408;23;19900;-69
2022/12/13 08:03:50;;;;;;;;;;;-2.40;99.90;;;;;;6248758;23;19907;-69
2022/12/13 08:06:18;;;;;;;;;;;-2.30;99.90;;;;;;6248411;23;19899;-70
2022/12/13 08:08:43;;;;;;;;;;;-2.30;99.90;;;;;;6248389;23;19954;-71
2022/12/13 08:11:10;;;;;;;;;;;-2.20;99.90;;;;;;6247904;23;20306;-70
2022/12/13 08:13:36;;;;;;;;;;;-2.20;99.90;;;;;;6247935;23;20337;-69
2022/12/13 08:16:03;;;;;;;;;;;-2.10;99.90;;;;;;6248315;23;19910;-70
2022/12/13 08:18:29;;;;;;;;;;;-2.00;99.90;;;;;;6248132;23;19954;-73
2022/12/13 08:20:57;;;;;;;;;;;-1.90;99.90;;;;;;6247759;23;19904;-75
2022/12/13 08:23:22;;;;;;;;;;;-1.80;99.90;;;;;;6247817;23;19946;-75
2022/12/13 08:25:51;;;;;;;;;;;-1.70;99.90;;;;;;6247008;22;19903;-74
2022/12/13 08:28:17;;;;;;;;;;;-1.70;99.90;;;;;;6247555;23;19903;-68
2022/12/13 08:30:42;;;;;;;;;;;-1.50;99.90;;;;;;6247536;23;19946;-72
2022/12/13 08:33:08;;;;;;;;;;;-1.50;99.90;;;;;;6247993;23;19900;-73
2022/12/13 08:35:33;;;;;;;;;;;-1.60;99.90;;;;;;6247907;23;19899;-73
2022/12/13 08:37:59;;;;;;;;;;;-1.50;99.90;;;;;;6248649;23;19904;-72
2022/12/13 08:40:25;;;;;;;;;;;-1.40;99.90;;;;;;6247796;23;19900;-63
2022/12/13 08:42:53;;;;;;;;;;;-1.30;99.90;;;;;;6248166;23;19914;-63
2022/12/13 08:45:18;;;;;;;;;;;-1.20;99.90;;;;;;6248397;23;19906;-73
2022/12/13 08:47:44;;;;;;;;;;;-1.30;99.90;;;;;;6248181;23;19900;-73
2022/12/13 08:50:09;;;;;;;;;;;-1.10;99.90;;;;;;6248073;23;19900;-72
2022/12/13 08:52:35;;;;;;;;;;;-1.00;99.90;;;;;;6247137;23;20233;-73
2022/12/13 08:55:00;;;;;;;;;;;-1.10;99.90;;;;;;6247673;23;19904;-74
2022/12/13 08:57:26;;;;;;;;;;;-1.00;99.90;;;;;;6247686;23;20237;-65
2022/12/13 08:59:53;;;;;;;;;;;-1.10;99.90;;;;;;6247407;23;19903;-74
2022/12/13 09:02:18;;;;;;;;;;;-1.00;99.90;;;;;;6247175;23;20306;-72
2022/12/13 09:04:44;;;;;;;;;;;-1.20;99.90;;;;;;6247465;23;19954;-72
2022/12/13 09:07:10;;;;;;;;;;;-1.10;99.90;;;;;;6220613;23;19903;-73
2022/12/13 09:09:35;;;;;;;;;;;-0.90;99.90;;;;;;6247925;23;20291;-71
2022/12/13 09:12:01;;;;;;;;;;;-0.70;99.90;;;;;;6247737;23;20245;-64
2022/12/13 09:14:26;;;;;;;;;;;-0.70;99.90;;;;;;6246824;23;20230;-73
2022/12/13 09:16:52;;;;;;;;;;;-0.50;99.90;;;;;;6247139;23;19907;-71
2022/12/13 09:19:18;;;;;;;;;;;-0.50;99.90;;;;;;6246632;23;19914;-73
2022/12/13 09:21:43;;;;;;;;;;;-0.40;99.90;;;;;;6247391;23;19900;-72
2022/12/13 09:24:09;;;;;;;;;;;-0.10;99.90;;;;;;6248316;22;19981;-73
2022/12/13 09:26:34;;;;;;;;;;;-0.20;99.90;;;;;;6247317;23;19900;-74
2022/12/13 09:29:00;;;;;;;;;;;-0.20;99.90;;;;;;6247326;23;19962;-76
2022/12/13 09:31:25;;;;;;;;;;;-0.10;99.90;;;;;;6247584;23;19991;-72
2022/12/13 09:33:51;;;;;;;;;;;-0.10;99.90;;;;;;6219952;23;19981;-75
2022/12/13 09:36:18;;;;;;;;;;;0.20;99.90;;;;;;6247531;23;19906;-79
2022/12/13 09:38:44;;;;;;;;;;;0.40;99.90;;;;;;6246992;23;19926;-74
2022/12/13 09:41:16;;;;;;;;;;;0.40;99.90;;;;;;6246826;23;20322;-75
2022/12/13 09:43:42;;;;;;;;;;;0.60;99.90;;;;;;6220418;23;19903;-74
2022/12/13 09:46:12;;;;;;;;;;;1.10;99.90;;;;;;6247063;23;19907;-69
2022/12/13 09:48:37;;;;;;;;;;;1.50;99.90;;;;;;6246466;23;19954;-70
2022/12/13 09:51:03;;;;;;;;;;;3.20;99.90;;;;;;6246151;23;19899;-69
2022/12/13 09:53:29;;;;;;;;;;;5.10;99.90;;;;;;6220120;23;20223;-68
2022/12/13 09:55:54;;;;;;;;;;;5.50;99.90;;;;;;6247499;23;19998;-69
2022/12/13 09:58:24;;;;;;;;;;;5.40;99.90;;;;;;6247058;23;19935;-67
2022/12/13 10:00:50;;;;;;;;;;;5.30;99.90;;;;;;6247215;23;19899;-67
2022/12/13 10:03:17;;;;;;;;;;;5.30;99.90;;;;;;6246928;23;19904;-68
2022/12/13 10:05:44;;;;;;;;;;;5.60;99.90;;;;;;6246572;23;19938;-72
2022/12/13 10:08:13;;;;;;;;;;;4.60;99.90;;;;;;6247589;23;19906;-69
2022/12/13 10:10:39;;;;;;;;;;;4.40;99.90;;;;;;6247078;23;19930;-78
2022/12/13 10:13:17;;;;;;;;;;;3.80;99.90;;;;;;6219529;23;19927;-75
2022/12/13 10:15:46;;;;;;;;;;;3.50;99.90;;;;;;6247239;23;19930;-78
2022/12/13 10:18:13;;;;;;;;;;;2.70;99.90;;;;;;6247612;23;19923;-77
2022/12/13 10:20:40;;;;;;;;;;;2.20;99.90;;;;;;6247288;23;19914;-73
2022/12/13 10:23:05;;;;;;;;;;;2.10;99.90;;;;;;6247141;23;19904;-76
2022/12/13 10:25:43;;;;;;;;;;;1.80;99.90;;;;;;6246381;22;19978;-73
2022/12/13 10:28:09;;;;;;;;;;;1.60;99.90;;;;;;6247148;23;19900;-63
2022/12/13 10:30:41;;;;;;;;;;;1.60;99.90;;;;;;6246173;23;20226;-64
2022/12/13 10:33:17;;;;;;;;;;;1.70;99.90;;;;;;6246642;23;19899;-69
2022/12/13 10:35:43;;;;;;;;;;;2.10;99.90;;;;;;6246887;23;19899;-71
2022/12/13 10:38:09;;;;;;;;;;;2.50;99.90;;;;;;6246618;23;19903;-71
2022/12/13 10:40:39;;;;;;;;;;;2.60;99.90;;;;;;6246503;23;19906;-70
2022/12/13 10:43:06;;;;;;;;;;;2.70;99.90;;;;;;6246641;23;19900;-68
2022/12/13 10:45:31;;;;;;;;;;;2.60;99.90;;;;;;6247021;23;19904;-74
2022/12/13 10:47:57;;;;;;;;;;;2.90;99.90;;;;;;6246516;23;19906;-74
2022/12/13 10:50:26;;;;;;;;;;;3.30;99.90;;;;;;6247038;23;19907;-75
2022/12/13 10:52:52;;;;;;;;;;;3.30;99.90;;;;;;6246972;23;19910;-73
2022/12/13 10:55:26;;;;;;;;;;;3.10;99.90;;;;;;6245373;23;19899;-71
2022/12/13 10:57:52;;;;;;;;;;;2.90;99.90;;;;;;6246899;23;19911;-72
2022/12/13 11:00:33;;;;;;;;;;;2.70;99.90;;;;;;6246777;23;19974;-74
2022/12/13 11:02:58;;;;;;;;;;;2.50;99.90;;;;;;6246331;23;20229;-76
2022/12/13 11:05:26;;;;;;;;;;;2.60;99.90;;;;;;6247089;23;19942;-67
2022/12/13 11:07:52;;;;;;;;;;;2.60;99.90;;;;;;6246600;23;19982;-74
2022/12/13 11:10:19;;;;;;;;;;;2.50;99.90;;;;;;6219700;23;19919;-75
2022/12/13 11:12:45;;;;;;;;;;;3.10;99.90;;;;;;6246367;23;19946;-75
2022/12/13 11:15:21;;;;;;;;;;;3.60;99.90;;;;;;6247050;23;19904;-74
2022/12/13 11:17:55;;;;;;;;;;;3.20;99.90;;;;;;6247087;23;19900;-76
2022/12/13 11:20:23;;;;;;;;;;;3.30;99.90;;;;;;6246641;23;19926;-73
2022/12/13 11:22:57;;;;;;;;;;;3.00;99.90;;;;;;6246725;23;20345;-71
2022/12/13 11:25:25;;;;;;;;;;;2.90;99.90;;;;;;6247019;22;19900;-73
2022/12/13 11:27:51;;;;;;;;;;;2.90;99.90;;;;;;6246289;23;19907;-72
2022/12/13 11:30:26;;;;;;;;;;;3.10;99.90;;;;;;6246067;23;20269;-64
2022/12/13 11:32:51;;;;;;;;;;;2.50;99.90;;;;;;6245897;23;19907;-65
2022/12/13 11:35:17;;;;;;;;;;;2.60;99.90;;;;;;6219292;23;20342;-66
2022/12/13 11:37:52;;;;;;;;;;;2.40;99.90;;;;;;6246795;23;19900;-66
2022/12/13 11:40:23;;;;;;;;;;;2.40;99.90;;;;;;6246982;23;20269;-64
2022/12/13 11:42:54;;;;;;;;;;;2.30;99.90;;;;;;6246544;23;19899;-65
2022/12/13 11:45:32;;;;;;;;;;;2.40;99.90;;;;;;6246379;23;19899;-66
2022/12/13 11:48:09;;;;;;;;;;;2.40;99.90;;;;;;6246481;23;19906;-65
2022/12/13 11:50:35;;;;;;;;;;;2.60;99.90;;;;;;6220330;23;19906;-66
2022/12/13 11:53:24;;;;;;;;;;;2.80;99.90;;;;;;6246380;23;20375;-65
2022/12/13 11:55:56;;;;;;;;;;;2.80;99.90;;;;;;6226483;23;19906;-64
2022/12/13 11:58:41;;;;;;;;;;;2.80;99.90;;;;;;6246185;23;20322;-66
2022/12/13 12:01:06;;;;;;;;;;;2.90;99.90;;;;;;6246088;23;19906;-66
2022/12/13 12:03:41;;;;;;;;;;;2.90;99.90;;;;;;6246444;23;19900;-67
2022/12/13 12:06:10;;;;;;;;;;;3.00;99.90;;;;;;6246744;23;19899;-65
2022/12/13 12:08:51;;;;;;;;;;;2.90;99.90;;;;;;6246372;23;19978;-66
2022/12/13 12:11:29;;;;;;;;;;;3.10;99.90;;;;;;6247115;23;20342;-65
2022/12/13 12:14:04;;;;;;;;;;;2.90;99.90;;;;;;6246694;23;20318;-66
2022/12/13 12:16:33;;;;;;;;;;;2.90;99.90;;;;;;6246362;23;19899;-66
2022/12/13 12:18:58;;;;;;;;;;;2.90;99.90;;;;;;6246323;23;19909;-66
2022/12/13 12:21:30;;;;;;;;;;;3.10;99.90;;;;;;6246998;23;19931;-64
2022/12/13 12:24:05;;;;;;;;;;;3.20;99.90;;;;;;6246314;22;19904;-65
2022/12/13 12:26:39;;;;;;;;;;;3.10;99.90;;;;;;6246370;23;19900;-65
2022/12/13 12:29:23;;;;;;;;;;;3.00;99.90;;;;;;6246371;23;19911;-66
2022/12/13 12:32:02;;;;;;;;;;;3.20;99.90;;;;;;6246325;23;19900;-65
2022/12/13 12:34:37;;;;;;;;;;;3.30;99.90;;;;;;6246356;23;19978;-64
2022/12/13 12:37:11;;;;;;;;;;;3.30;99.90;;;;;;6248285;23;19907;-63
2022/12/13 12:39:52;;;;;;;;;;;3.10;99.90;;;;;;6248147;23;20238;-65
2022/12/13 12:42:32;;;;;;;;;;;2.90;99.90;;;;;;6248506;23;19899;-65
2022/12/13 12:45:04;;;;;;;;;;;2.90;99.90;;;;;;6248177;23;19974;-65
2022/12/13 12:47:32;;;;;;;;;;;2.80;99.90;;;;;;6247743;23;19974;-66
2022/12/13 12:49:58;;;;;;;;;;;3.00;99.90;;;;;;6248123;23;19900;-66
2022/12/13 12:52:23;;;;;;;;;;;3.00;99.90;;;;;;6248399;23;19979;-65
2022/12/13 12:55:07;;;;;;;;;;;3.30;99.90;;;;;;6248087;23;20331;-66
2022/12/13 12:57:39;;;;;;;;;;;3.10;99.90;;;;;;6248302;23;20314;-64
2022/12/13 13:00:11;;;;;;;;;;;3.00;99.90;;;;;;6247999;23;19953;-66
2022/12/13 13:02:40;;;;;;;;;;;3.20;99.90;;;;;;6247852;23;19900;-64
2022/12/13 13:05:16;;;;;;;;;;;3.30;99.90;;;;;;6247907;23;20215;-66
2022/12/13 13:07:45;;;;;;;;;;;3.00;99.90;;;;;;6248257;23;20229;-65
2022/12/13 13:10:11;;;;;;;;;;;3.30;99.90;;;;;;6248251;23;19907;-66
2022/12/13 13:12:39;;;;;;;;;;;3.20;99.90;;;;;;6247897;23;19978;-65
2022/12/13 13:15:23;;;;;;;;;;;3.30;99.90;;;;;;6248513;23;20355;-64
2022/12/13 13:17:48;;;;;;;;;;;3.30;99.90;;;;;;6247983;23;20314;-66
2022/12/13 13:20:24;;;;;;;;;;;3.10;99.90;;;;;;6248461;23;19935;-64
2022/12/13 13:22:51;;;;;;;;;;;2.90;99.90;;;;;;6248199;23;19900;-65
2022/12/13 13:25:21;;;;;;;;;;;3.10;99.90;;;;;;6247681;22;19946;-65
2022/12/13 13:27:49;;;;;;;;;;;3.20;99.90;;;;;;6247758;23;20043;-65
2022/12/13 13:30:15;;;;;;;;;;;3.20;99.90;;;;;;6247250;23;19933;-66
2022/12/13 13:32:40;;;;;;;;;;;3.20;99.90;;;;;;6247720;23;20384;-65
2022/12/13 13:35:25;;;;;;;;;;;3.40;99.90;;;;;;6248368;23;19906;-65
2022/12/13 13:37:50;;;;;;;;;;;3.60;99.90;;;;;;6247931;23;19927;-65
2022/12/13 13:40:33;;;;;;;;;;;3.90;99.90;;;;;;6247941;23;19907;-64
2022/12/13 13:43:04;;;;;;;;;;;4.10;99.90;;;;;;6247594;23;19915;-64
2022/12/13 13:45:53;;;;;;;;;;;4.30;99.90;;;;;;6247572;23;19899;-65
2022/12/13 13:48:22;;;;;;;;;;;4.00;99.90;;;;;;6223674;23;19950;-65
2022/12/13 13:50:50;;;;;;;;;;;3.60;99.90;;;;;;6247502;23;19971;-63
2022/12/13 13:53:33;;;;;;;;;;;3.40;99.90;;;;;;6247426;23;19900;-65
2022/12/13 13:56:08;;;;;;;;;;;3.10;99.90;;;;;;6247833;23;20401;-66
2022/12/13 13:58:33;;;;;;;;;;;2.90;99.90;;;;;;6247330;23;19903;-66
2022/12/13 14:01:08;;;;;;;;;;;2.80;99.90;;;;;;6248146;23;19900;-65
2022/12/13 14:03:59;;;;;;;;;;;2.60;99.90;;;;;;6247387;23;19899;-65
2022/12/13 14:06:37;;;;;;;;;;;2.70;99.90;;;;;;6189590;23;19953;-65
2022/12/13 14:09:05;;;;;;;;;;;2.70;99.90;;;;;;6247273;23;19978;-66
2022/12/13 14:11:49;;;;;;;;;;;2.70;99.90;;;;;;6247308;23;20281;-65
2022/12/13 14:14:33;;;;;;;;;;;2.90;99.90;;;;;;6247686;23;20220;-64
2022/12/13 14:17:17;;;;;;;;;;;3.30;99.90;;;;;;6247274;23;19931;-66
2022/12/13 14:19:52;;;;;;;;;;;3.40;99.90;;;;;;6247214;23;20241;-65
2022/12/13 14:22:17;;;;;;;;;;;3.50;99.90;;;;;;6247258;23;19931;-66
2022/12/13 14:25:05;;;;;;;;;;;3.50;99.90;;;;;;6248011;22;20199;-66
2022/12/13 14:27:43;;;;;;;;;;;3.60;99.90;;;;;;6247206;23;20276;-65
2022/12/13 14:30:17;;;;;;;;;;;3.50;99.90;;;;;;6246652;23;19915;-65
2022/12/13 14:32:45;;;;;;;;;;;3.70;99.90;;;;;;6247472;23;19906;-65